sensor_id;sensor_type;location;lat;lon;timestamp;pressure;altitude;pressure_sealevel;temperature;humidity
73817;BME280;62146;53.232;-1.304;2022-09-09T00:04:32;99182.78;;;19.99;86.02
73817;BME280;62146;53.232;-1.304;2022-09-09T00:07:03;99181.16;;;19.98;85.55
73817;BME280;62146;53.232;-1.304;2022-09-09T00:09:45;99181.50;;;19.97;85.73
73817;BME280;62146;53.232;-1.304;2022-09-09T00:12:22;99180.38;;;19.98;85.79
73817;BME280;62146;53.232;-1.304;2022-09-09T00:14:58;99177.44;;;19.91;85.70
73817;BME280;62146;53.232;-1.304;2022-09-09T00:17:49;99185.84;;;19.89;86.15
73817;BME280;62146;53.232;-1.304;2022-09-09T00:20:34;99186.75;;;19.93;85.83
73817;BME280;62146;53.232;-1.304;2022-09-09T00:23:14;99178.88;;;19.88;85.97
73817;BME280;62146;53.232;-1.304;2022-09-09T00:28:26;99181.91;;;19.87;86.03
73817;BME280;62146;53.232;-1.304;2022-09-09T00:30:53;99189.31;;;19.90;85.61
73817;BME280;62146;53.232;-1.304;2022-09-09T00:33:23;99189.97;;;19.87;85.70
73817;BME280;62146;53.232;-1.304;2022-09-09T00:35:52;99190.75;;;19.87;85.28
73817;BME280;62146;53.232;-1.304;2022-09-09T00:38:33;99188.47;;;19.78;85.86
73817;BME280;62146;53.232;-1.304;2022-09-09T00:41:11;99187.56;;;19.74;86.46
73817;BME280;62146;53.232;-1.304;2022-09-09T00:43:41;99189.59;;;19.68;86.25
73817;BME280;62146;53.232;-1.304;2022-09-09T00:56:50;99179.66;;;19.69;86.57
73817;BME280;62146;53.232;-1.304;2022-09-09T01:02:25;99182.31;;;19.77;86.60
73817;BME280;62146;53.232;-1.304;2022-09-09T01:04:54;99190.50;;;19.81;86.69
73817;BME280;62146;53.232;-1.304;2022-09-09T01:07:25;99185.13;;;19.81;86.17
73817;BME280;62146;53.232;-1.304;2022-09-09T01:10:05;99178.16;;;19.80;86.39
73817;BME280;62146;53.232;-1.304;2022-09-09T01:12:54;99177.84;;;19.81;86.36
73817;BME280;62146;53.232;-1.304;2022-09-09T01:15:27;99188.25;;;19.83;86.32
73817;BME280;62146;53.232;-1.304;2022-09-09T01:20:45;99182.75;;;19.79;86.07
73817;BME280;62146;53.232;-1.304;2022-09-09T01:26:10;99181.97;;;19.79;85.90
73817;BME280;62146;53.232;-1.304;2022-09-09T01:28:39;99182.75;;;19.79;85.72
73817;BME280;62146;53.232;-1.304;2022-09-09T01:31:07;99184.38;;;19.72;86.08
73817;BME280;62146;53.232;-1.304;2022-09-09T01:33:35;99188.78;;;19.76;86.31
73817;BME280;62146;53.232;-1.304;2022-09-09T01:36:07;99183.41;;;19.76;86.02
73817;BME280;62146;53.232;-1.304;2022-09-09T01:38:35;99190.56;;;19.72;86.07
73817;BME280;62146;53.232;-1.304;2022-09-09T01:41:03;99189.91;;;19.75;85.87
73817;BME280;62146;53.232;-1.304;2022-09-09T01:43:30;99186.44;;;19.75;86.22
73817;BME280;62146;53.232;-1.304;2022-09-09T01:45:59;99184.53;;;19.75;86.16
73817;BME280;62146;53.232;-1.304;2022-09-09T01:48:27;99180.59;;;19.73;85.88
73817;BME280;62146;53.232;-1.304;2022-09-09T01:50:54;99176.66;;;19.70;86.06
73817;BME280;62146;53.232;-1.304;2022-09-09T01:53:21;99185.19;;;19.64;86.68
73817;BME280;62146;53.232;-1.304;2022-09-09T02:03:32;99176.47;;;19.67;86.12
73817;BME280;62146;53.232;-1.304;2022-09-09T02:06:18;99176.16;;;19.68;86.31
73817;BME280;62146;53.232;-1.304;2022-09-09T02:08:53;99177.25;;;19.67;86.33
73817;BME280;62146;53.232;-1.304;2022-09-09T02:11:23;99174.09;;;19.74;86.02
73817;BME280;62146;53.232;-1.304;2022-09-09T02:13:57;99167.72;;;19.78;86.07
73817;BME280;62146;53.232;-1.304;2022-09-09T02:16:56;99165.03;;;19.78;85.90
73817;BME280;62146;53.232;-1.304;2022-09-09T02:19:37;99170.75;;;19.77;85.93
73817;BME280;62146;53.232;-1.304;2022-09-09T02:22:05;99165.94;;;19.82;86.20
73817;BME280;62146;53.232;-1.304;2022-09-09T02:24:35;99168.97;;;19.81;86.38
73817;BME280;62146;53.232;-1.304;2022-09-09T02:27:05;99167.22;;;19.85;85.91
73817;BME280;62146;53.232;-1.304;2022-09-09T02:29:36;99178.50;;;19.78;86.16
73817;BME280;62146;53.232;-1.304;2022-09-09T02:32:06;99177.75;;;19.69;86.40
73817;BME280;62146;53.232;-1.304;2022-09-09T02:34:38;99176.16;;;19.68;86.66
73817;BME280;62146;53.232;-1.304;2022-09-09T02:37:07;99176.66;;;19.70;86.32
73817;BME280;62146;53.232;-1.304;2022-09-09T02:39:36;99174.88;;;19.74;86.27
73817;BME280;62146;53.232;-1.304;2022-09-09T02:42:04;99184.84;;;19.74;86.48
73817;BME280;62146;53.232;-1.304;2022-09-09T02:44:31;99183.91;;;19.70;86.10
73817;BME280;62146;53.232;-1.304;2022-09-09T02:50:20;99182.63;;;19.76;86.19
73817;BME280;62146;53.232;-1.304;2022-09-09T02:55:41;99164.16;;;19.66;86.51
73817;BME280;62146;53.232;-1.304;2022-09-09T02:58:14;99174.00;;;19.62;86.80
73817;BME280;62146;53.232;-1.304;2022-09-09T03:00:45;99171.63;;;19.60;86.71
73817;BME280;62146;53.232;-1.304;2022-09-09T03:03:13;99172.59;;;19.56;86.66
73817;BME280;62146;53.232;-1.304;2022-09-09T03:05:40;99170.88;;;19.52;87.10
73817;BME280;62146;53.232;-1.304;2022-09-09T03:08:09;99171.38;;;19.54;86.99
73817;BME280;62146;53.232;-1.304;2022-09-09T03:10:35;99166.78;;;19.54;86.89
73817;BME280;62146;53.232;-1.304;2022-09-09T03:13:03;99174.16;;;19.57;86.84
73817;BME280;62146;53.232;-1.304;2022-09-09T03:15:32;99167.88;;;19.53;86.83
73817;BME280;62146;53.232;-1.304;2022-09-09T03:17:59;99169.91;;;19.56;86.85
73817;BME280;62146;53.232;-1.304;2022-09-09T03:20:28;99176.06;;;19.57;86.71
73817;BME280;62146;53.232;-1.304;2022-09-09T03:22:56;99164.88;;;19.55;86.98
73817;BME280;62146;53.232;-1.304;2022-09-09T03:25:23;99169.47;;;19.54;86.96
73817;BME280;62146;53.232;-1.304;2022-09-09T03:27:53;99175.00;;;19.49;87.01
73817;BME280;62146;53.232;-1.304;2022-09-09T03:30:22;99171.03;;;19.55;87.09
73817;BME280;62146;53.232;-1.304;2022-09-09T03:32:49;99179.28;;;19.50;87.54
73817;BME280;62146;53.232;-1.304;2022-09-09T03:35:15;99176.41;;;19.55;86.97
73817;BME280;62146;53.232;-1.304;2022-09-09T03:37:42;99176.53;;;19.58;87.37
73817;BME280;62146;53.232;-1.304;2022-09-09T03:40:09;99184.81;;;19.54;87.01
73817;BME280;62146;53.232;-1.304;2022-09-09T03:42:37;99179.59;;;19.49;87.47
73817;BME280;62146;53.232;-1.304;2022-09-09T03:45:05;99183.56;;;19.51;87.55
73817;BME280;62146;53.232;-1.304;2022-09-09T03:47:32;99180.72;;;19.48;87.60
73817;BME280;62146;53.232;-1.304;2022-09-09T03:49:59;99181.50;;;19.48;87.65
73817;BME280;62146;53.232;-1.304;2022-09-09T03:52:25;99181.66;;;19.52;87.24
73817;BME280;62146;53.232;-1.304;2022-09-09T03:54:53;99187.81;;;19.52;87.66
73817;BME280;62146;53.232;-1.304;2022-09-09T03:57:20;99182.78;;;19.51;87.86
73817;BME280;62146;53.232;-1.304;2022-09-09T03:59:47;99187.38;;;19.50;87.66
73817;BME280;62146;53.232;-1.304;2022-09-09T04:02:14;99183.91;;;19.50;87.40
73817;BME280;62146;53.232;-1.304;2022-09-09T04:04:41;99186.09;;;19.48;87.71
73817;BME280;62146;53.232;-1.304;2022-09-09T04:07:08;99187.53;;;19.45;87.67
73817;BME280;62146;53.232;-1.304;2022-09-09T04:09:34;99182.84;;;19.42;87.76
73817;BME280;62146;53.232;-1.304;2022-09-09T04:12:01;99181.09;;;19.38;88.03
73817;BME280;62146;53.232;-1.304;2022-09-09T04:14:28;99194.53;;;19.38;88.35
73817;BME280;62146;53.232;-1.304;2022-09-09T04:16:55;99193.44;;;19.39;88.09
73817;BME280;62146;53.232;-1.304;2022-09-09T04:19:23;99186.59;;;19.41;87.75
73817;BME280;62146;53.232;-1.304;2022-09-09T04:21:50;99194.38;;;19.43;87.76
73817;BME280;62146;53.232;-1.304;2022-09-09T04:24:18;99187.59;;;19.37;87.96
73817;BME280;62146;53.232;-1.304;2022-09-09T04:26:45;99192.78;;;19.42;88.47
73817;BME280;62146;53.232;-1.304;2022-09-09T04:29:11;99187.28;;;19.38;88.13
73817;BME280;62146;53.232;-1.304;2022-09-09T04:31:38;99189.00;;;19.43;87.70
73817;BME280;62146;53.232;-1.304;2022-09-09T04:34:11;99195.00;;;19.40;87.94
73817;BME280;62146;53.232;-1.304;2022-09-09T04:36:37;99192.78;;;19.42;88.24
73817;BME280;62146;53.232;-1.304;2022-09-09T04:39:07;99194.50;;;19.46;88.12
73817;BME280;62146;53.232;-1.304;2022-09-09T04:41:33;99193.06;;;19.49;88.23
73817;BME280;62146;53.232;-1.304;2022-09-09T04:44:03;99194.66;;;19.50;87.63
73817;BME280;62146;53.232;-1.304;2022-09-09T04:46:30;99197.66;;;19.48;87.78
73817;BME280;62146;53.232;-1.304;2022-09-09T04:48:56;99196.22;;;19.51;88.10
73817;BME280;62146;53.232;-1.304;2022-09-09T04:51:23;99203.03;;;19.48;87.69
73817;BME280;62146;53.232;-1.304;2022-09-09T04:53:50;99210.78;;;19.50;87.63
73817;BME280;62146;53.232;-1.304;2022-09-09T04:56:18;99209.66;;;19.51;88.07
73817;BME280;62146;53.232;-1.304;2022-09-09T04:58:44;99201.59;;;19.51;87.99
73817;BME280;62146;53.232;-1.304;2022-09-09T05:01:16;99207.13;;;19.54;87.66
73817;BME280;62146;53.232;-1.304;2022-09-09T05:03:46;99213.00;;;19.48;88.00
73817;BME280;62146;53.232;-1.304;2022-09-09T05:06:15;99211.88;;;19.49;87.80
73817;BME280;62146;53.232;-1.304;2022-09-09T05:08:43;99224.09;;;19.46;88.07
73817;BME280;62146;53.232;-1.304;2022-09-09T05:11:25;99217.31;;;19.40;88.27
73817;BME280;62146;53.232;-1.304;2022-09-09T05:13:53;99219.03;;;19.45;88.00
73817;BME280;62146;53.232;-1.304;2022-09-09T05:16:21;99219.38;;;19.43;88.31
73817;BME280;62146;53.232;-1.304;2022-09-09T05:18:47;99232.03;;;19.43;88.47
73817;BME280;62146;53.232;-1.304;2022-09-09T05:21:16;99221.56;;;19.41;88.21
73817;BME280;62146;53.232;-1.304;2022-09-09T05:23:42;99227.44;;;19.43;87.96
73817;BME280;62146;53.232;-1.304;2022-09-09T05:26:16;99242.00;;;19.42;88.14
73817;BME280;62146;53.232;-1.304;2022-09-09T05:28:44;99230.75;;;19.40;88.15
73817;BME280;62146;53.232;-1.304;2022-09-09T05:31:11;99236.63;;;19.42;87.81
73817;BME280;62146;53.232;-1.304;2022-09-09T05:33:40;99235.50;;;19.43;88.12
73817;BME280;62146;53.232;-1.304;2022-09-09T05:36:13;99239.16;;;19.39;88.43
73817;BME280;62146;53.232;-1.304;2022-09-09T05:38:41;99237.72;;;19.41;88.39
73817;BME280;62146;53.232;-1.304;2022-09-09T05:41:08;99234.09;;;19.37;88.64
73817;BME280;62146;53.232;-1.304;2022-09-09T05:43:37;99233.94;;;19.42;88.25
73817;BME280;62146;53.232;-1.304;2022-09-09T05:46:06;99238.19;;;19.43;88.14
73817;BME280;62146;53.232;-1.304;2022-09-09T05:48:38;99235.03;;;19.41;88.37
73817;BME280;62146;53.232;-1.304;2022-09-09T05:51:07;99240.41;;;19.41;88.30
73817;BME280;62146;53.232;-1.304;2022-09-09T05:53:33;99242.44;;;19.44;88.47
73817;BME280;62146;53.232;-1.304;2022-09-09T05:56:09;99244.66;;;19.51;88.13
73817;BME280;62146;53.232;-1.304;2022-09-09T05:58:40;99250.47;;;19.53;87.76
73817;BME280;62146;53.232;-1.304;2022-09-09T06:01:12;99243.06;;;19.50;88.38
73817;BME280;62146;53.232;-1.304;2022-09-09T06:03:43;99243.84;;;19.50;87.92
73817;BME280;62146;53.232;-1.304;2022-09-09T06:06:15;99243.84;;;19.50;88.42
73817;BME280;62146;53.232;-1.304;2022-09-09T06:08:44;99246.72;;;19.45;88.59
73817;BME280;62146;53.232;-1.304;2022-09-09T06:11:14;99251.25;;;19.53;88.27
73817;BME280;62146;53.232;-1.304;2022-09-09T06:13:41;99254.09;;;19.57;87.72
73817;BME280;62146;53.232;-1.304;2022-09-09T06:16:09;99260.69;;;19.67;87.78
73817;BME280;62146;53.232;-1.304;2022-09-09T06:18:39;99259.44;;;19.65;87.54
73817;BME280;62146;53.232;-1.304;2022-09-09T06:21:08;99263.22;;;19.64;87.64
73817;BME280;62146;53.232;-1.304;2022-09-09T06:23:35;99266.22;;;19.71;87.32
73817;BME280;62146;53.232;-1.304;2022-09-09T06:26:07;99262.91;;;19.74;87.49
73817;BME280;62146;53.232;-1.304;2022-09-09T06:28:34;99270.50;;;19.72;87.13
73817;BME280;62146;53.232;-1.304;2022-09-09T06:31:04;99263.06;;;19.69;87.14
73817;BME280;62146;53.232;-1.304;2022-09-09T06:33:39;99280.78;;;19.70;87.58
73817;BME280;62146;53.232;-1.304;2022-09-09T06:36:11;99283.66;;;19.65;87.53
73817;BME280;62146;53.232;-1.304;2022-09-09T06:38:38;99282.06;;;19.64;87.55
73817;BME280;62146;53.232;-1.304;2022-09-09T06:41:04;99281.09;;;19.68;87.69
73817;BME280;62146;53.232;-1.304;2022-09-09T06:43:32;99285.66;;;19.76;87.52
73817;BME280;62146;53.232;-1.304;2022-09-09T06:46:04;99283.72;;;19.85;86.61
73817;BME280;62146;53.232;-1.304;2022-09-09T06:48:30;99283.34;;;19.95;86.46
73817;BME280;62146;53.232;-1.304;2022-09-09T06:51:05;99277.00;;;19.99;86.37
73817;BME280;62146;53.232;-1.304;2022-09-09T06:53:34;99288.22;;;20.01;86.16
73817;BME280;62146;53.232;-1.304;2022-09-09T06:58:29;99293.66;;;20.13;85.70
73817;BME280;62146;53.232;-1.304;2022-09-09T07:01:05;99296.28;;;20.21;85.67
73817;BME280;62146;53.232;-1.304;2022-09-09T07:03:33;99295.19;;;20.22;85.18
73817;BME280;62146;53.232;-1.304;2022-09-09T07:06:00;99288.09;;;20.38;85.12
73817;BME280;62146;53.232;-1.304;2022-09-09T07:08:27;99289.28;;;20.49;84.40
73817;BME280;62146;53.232;-1.304;2022-09-09T07:10:54;99299.00;;;20.41;84.50
73817;BME280;62146;53.232;-1.304;2022-09-09T07:13:27;99298.53;;;20.39;84.27
73817;BME280;62146;53.232;-1.304;2022-09-09T07:15:54;99300.53;;;20.51;84.37
73817;BME280;62146;53.232;-1.304;2022-09-09T07:18:20;99302.56;;;20.54;83.90
73817;BME280;62146;53.232;-1.304;2022-09-09T07:20:54;99305.72;;;20.56;83.78
73817;BME280;62146;53.232;-1.304;2022-09-09T07:23:23;99308.22;;;20.61;83.93
73817;BME280;62146;53.232;-1.304;2022-09-09T07:25:50;99308.47;;;20.67;83.43
73817;BME280;62146;53.232;-1.304;2022-09-09T07:28:20;99319.22;;;20.88;83.03
73817;BME280;62146;53.232;-1.304;2022-09-09T07:33:22;99321.72;;;20.93;82.12
73817;BME280;62146;53.232;-1.304;2022-09-09T07:35:48;99328.84;;;20.77;82.67
73817;BME280;62146;53.232;-1.304;2022-09-09T07:38:15;99326.31;;;20.60;82.87
73817;BME280;62146;53.232;-1.304;2022-09-09T07:40:42;99331.44;;;20.53;83.19
73817;BME280;62146;53.232;-1.304;2022-09-09T07:43:09;99328.41;;;20.55;83.30
73817;BME280;62146;53.232;-1.304;2022-09-09T07:45:40;99330.84;;;20.68;82.49
73817;BME280;62146;53.232;-1.304;2022-09-09T07:48:08;99333.03;;;20.86;81.89
73817;BME280;62146;53.232;-1.304;2022-09-09T07:50:35;99339.00;;;21.23;80.67
73817;BME280;62146;53.232;-1.304;2022-09-09T07:53:01;99336.97;;;21.64;79.55
73817;BME280;62146;53.232;-1.304;2022-09-09T07:55:28;99349.31;;;21.65;78.50
73817;BME280;62146;53.232;-1.304;2022-09-09T07:57:55;99349.78;;;21.55;78.89
73817;BME280;62146;53.232;-1.304;2022-09-09T08:00:22;99350.56;;;21.44;79.36
73817;BME280;62146;53.232;-1.304;2022-09-09T08:02:50;99352.31;;;21.08;80.28
73817;BME280;62146;53.232;-1.304;2022-09-09T08:05:16;99351.59;;;20.88;81.47
73817;BME280;62146;53.232;-1.304;2022-09-09T08:07:44;99352.19;;;20.73;82.20
73817;BME280;62146;53.232;-1.304;2022-09-09T08:10:11;99351.41;;;20.72;82.54
73817;BME280;62146;53.232;-1.304;2022-09-09T08:12:37;99345.72;;;20.86;82.24
73817;BME280;62146;53.232;-1.304;2022-09-09T08:15:09;99358.69;;;20.92;81.21
73817;BME280;62146;53.232;-1.304;2022-09-09T08:17:36;99357.63;;;21.17;80.88
73817;BME280;62146;53.232;-1.304;2022-09-09T08:20:04;99364.13;;;21.48;79.35
73817;BME280;62146;53.232;-1.304;2022-09-09T08:22:31;99371.50;;;21.71;78.69
73817;BME280;62146;53.232;-1.304;2022-09-09T08:24:58;99376.50;;;22.04;77.44
73817;BME280;62146;53.232;-1.304;2022-09-09T08:27:24;99374.34;;;22.21;76.60
73817;BME280;62146;53.232;-1.304;2022-09-09T08:29:51;99371.38;;;22.50;75.77
73817;BME280;62146;53.232;-1.304;2022-09-09T08:32:18;99373.78;;;22.39;75.12
73817;BME280;62146;53.232;-1.304;2022-09-09T08:34:45;99380.78;;;22.17;76.23
73817;BME280;62146;53.232;-1.304;2022-09-09T08:37:12;99385.06;;;22.06;76.65
73817;BME280;62146;53.232;-1.304;2022-09-09T08:39:38;99379.03;;;21.77;78.12
73817;BME280;62146;53.232;-1.304;2022-09-09T08:47:57;99392.53;;;21.89;77.43
73817;BME280;62146;53.232;-1.304;2022-09-09T08:50:36;99390.00;;;22.04;77.28
73817;BME280;62146;53.232;-1.304;2022-09-09T08:55:47;99404.75;;;22.18;76.81
73817;BME280;62146;53.232;-1.304;2022-09-09T08:58:20;99396.97;;;22.40;75.97
73817;BME280;62146;53.232;-1.304;2022-09-09T09:11:26;99406.91;;;22.13;77.24
73817;BME280;62146;53.232;-1.304;2022-09-09T09:14:03;99412.81;;;22.54;75.71
73817;BME280;62146;53.232;-1.304;2022-09-09T09:19:02;99402.22;;;23.95;70.07
73817;BME280;62146;53.232;-1.304;2022-09-09T09:21:44;99408.59;;;23.72;71.03
73817;BME280;62146;53.232;-1.304;2022-09-09T09:24:19;99414.03;;;23.61;71.51
73817;BME280;62146;53.232;-1.304;2022-09-09T09:26:47;99419.41;;;23.72;71.34
73817;BME280;62146;53.232;-1.304;2022-09-09T09:29:17;99423.16;;;23.68;71.19
73817;BME280;62146;53.232;-1.304;2022-09-09T09:31:53;99418.19;;;23.85;70.56
73817;BME280;62146;53.232;-1.304;2022-09-09T09:34:23;99422.06;;;24.15;69.42
73817;BME280;62146;53.232;-1.304;2022-09-09T09:36:55;99424.59;;;24.38;68.84
73817;BME280;62146;53.232;-1.304;2022-09-09T09:42:12;99433.06;;;24.71;67.83
73817;BME280;62146;53.232;-1.304;2022-09-09T09:44:40;99429.72;;;24.77;66.96
73817;BME280;62146;53.232;-1.304;2022-09-09T09:47:14;99429.94;;;24.69;66.83
73817;BME280;62146;53.232;-1.304;2022-09-09T09:49:57;99436.84;;;24.66;67.46
73817;BME280;62146;53.232;-1.304;2022-09-09T09:52:27;99442.13;;;24.44;67.23
73817;BME280;62146;53.232;-1.304;2022-09-09T09:54:56;99444.53;;;24.46;67.75
73817;BME280;62146;53.232;-1.304;2022-09-09T09:57:29;99447.72;;;24.51;67.33
73817;BME280;62146;53.232;-1.304;2022-09-09T10:00:18;99450.56;;;24.73;65.67
73817;BME280;62146;53.232;-1.304;2022-09-09T10:02:47;99451.16;;;24.48;64.48
73817;BME280;62146;53.232;-1.304;2022-09-09T10:05:26;99453.28;;;24.24;65.59
73817;BME280;62146;53.232;-1.304;2022-09-09T10:08:11;99447.13;;;23.96;65.04
73817;BME280;62146;53.232;-1.304;2022-09-09T10:22:28;99447.56;;;24.44;63.85
73817;BME280;62146;53.232;-1.304;2022-09-09T10:25:11;99458.28;;;23.95;65.34
73817;BME280;62146;53.232;-1.304;2022-09-09T10:33:47;99455.47;;;24.34;62.96
73817;BME280;62146;53.232;-1.304;2022-09-09T10:38:47;99458.41;;;23.29;64.65
73817;BME280;62146;53.232;-1.304;2022-09-09T10:41:50;99460.66;;;23.81;64.25
73817;BME280;62146;53.232;-1.304;2022-09-09T10:47:24;99462.16;;;24.09;63.26
73817;BME280;62146;53.232;-1.304;2022-09-09T10:50:14;99460.06;;;24.48;62.27
73817;BME280;62146;53.232;-1.304;2022-09-09T10:52:58;99466.16;;;24.76;60.48
73817;BME280;62146;53.232;-1.304;2022-09-09T10:55:37;99461.75;;;24.53;59.89
73817;BME280;62146;53.232;-1.304;2022-09-09T10:58:05;99467.25;;;24.11;62.17
73817;BME280;62146;53.232;-1.304;2022-09-09T11:00:44;99467.22;;;24.87;62.92
73817;BME280;62146;53.232;-1.304;2022-09-09T11:03:25;99464.59;;;25.65;60.10
73817;BME280;62146;53.232;-1.304;2022-09-09T11:06:01;99458.16;;;26.13;58.29
73817;BME280;62146;53.232;-1.304;2022-09-09T11:08:33;99469.34;;;26.09;56.27
73817;BME280;62146;53.232;-1.304;2022-09-09T11:11:27;99461.25;;;27.14;55.46
73817;BME280;62146;53.232;-1.304;2022-09-09T11:14:09;99469.94;;;26.46;56.13
73817;BME280;62146;53.232;-1.304;2022-09-09T11:16:57;99467.88;;;25.55;57.12
73817;BME280;62146;53.232;-1.304;2022-09-09T11:19:36;99470.91;;;24.98;58.76
73817;BME280;62146;53.232;-1.304;2022-09-09T11:22:14;99467.28;;;26.24;56.31
73817;BME280;62146;53.232;-1.304;2022-09-09T11:24:48;99467.41;;;27.08;53.86
73817;BME280;62146;53.232;-1.304;2022-09-09T11:27:25;99463.22;;;27.78;51.03
73817;BME280;62146;53.232;-1.304;2022-09-09T11:36:27;99456.31;;;29.43;48.90
73817;BME280;62146;53.232;-1.304;2022-09-09T11:41:52;99456.53;;;30.19;46.33
73817;BME280;62146;53.232;-1.304;2022-09-09T11:44:29;99453.19;;;31.44;44.12
73817;BME280;62146;53.232;-1.304;2022-09-09T11:46:56;99456.94;;;30.66;46.02
73817;BME280;62146;53.232;-1.304;2022-09-09T11:49:43;99461.38;;;32.25;42.38
73817;BME280;62146;53.232;-1.304;2022-09-09T11:52:25;99450.47;;;33.38;38.99
73817;BME280;62146;53.232;-1.304;2022-09-09T11:55:11;99452.22;;;34.36;37.44
73817;BME280;62146;53.232;-1.304;2022-09-09T11:57:38;99461.41;;;35.16;36.93
73817;BME280;62146;53.232;-1.304;2022-09-09T12:00:06;99451.91;;;36.25;35.06
73817;BME280;62146;53.232;-1.304;2022-09-09T12:02:33;99455.75;;;33.84;37.72
73817;BME280;62146;53.232;-1.304;2022-09-09T12:05:07;99462.50;;;34.06;38.02
73817;BME280;62146;53.232;-1.304;2022-09-09T12:10:22;99455.34;;;36.14;35.61
73817;BME280;62146;53.232;-1.304;2022-09-09T12:12:50;99459.56;;;37.53;32.70
73817;BME280;62146;53.232;-1.304;2022-09-09T12:15:23;99457.00;;;34.32;36.10
73817;BME280;62146;53.232;-1.304;2022-09-09T12:17:52;99451.03;;;36.60;33.56
73817;BME280;62146;53.232;-1.304;2022-09-09T12:20:30;99448.69;;;38.35;31.32
73817;BME280;62146;53.232;-1.304;2022-09-09T12:25:58;99444.34;;;38.59;31.76
73817;BME280;62146;53.232;-1.304;2022-09-09T12:31:29;99436.31;;;40.08;30.66
73817;BME280;62146;53.232;-1.304;2022-09-09T12:36:47;99445.31;;;40.60;29.75
73817;BME280;62146;53.232;-1.304;2022-09-09T12:39:42;99449.66;;;33.04;38.70
73817;BME280;62146;53.232;-1.304;2022-09-09T12:42:20;99462.16;;;29.38;45.12
73817;BME280;62146;53.232;-1.304;2022-09-09T12:44:54;99471.66;;;27.99;47.72
73817;BME280;62146;53.232;-1.304;2022-09-09T12:47:46;99482.34;;;27.46;50.23
73817;BME280;62146;53.232;-1.304;2022-09-09T12:50:17;99490.50;;;26.91;49.17
73817;BME280;62146;53.232;-1.304;2022-09-09T12:52:45;99498.72;;;26.69;50.93
73817;BME280;62146;53.232;-1.304;2022-09-09T12:55:19;99495.59;;;26.45;52.56
73817;BME280;62146;53.232;-1.304;2022-09-09T12:57:48;99504.66;;;26.31;53.52
73817;BME280;62146;53.232;-1.304;2022-09-09T13:00:22;99511.06;;;26.41;54.14
73817;BME280;62146;53.232;-1.304;2022-09-09T13:02:52;99508.78;;;26.43;54.35
73817;BME280;62146;53.232;-1.304;2022-09-09T13:05:27;99510.47;;;26.51;55.44
73817;BME280;62146;53.232;-1.304;2022-09-09T13:08:06;99518.38;;;26.82;56.93
73817;BME280;62146;53.232;-1.304;2022-09-09T13:10:37;99523.19;;;27.17;55.13
73817;BME280;62146;53.232;-1.304;2022-09-09T13:13:30;99523.41;;;27.31;56.54
73817;BME280;62146;53.232;-1.304;2022-09-09T13:15:59;99519.88;;;27.59;54.80
73817;BME280;62146;53.232;-1.304;2022-09-09T13:18:31;99514.50;;;27.98;54.56
73817;BME280;62146;53.232;-1.304;2022-09-09T13:20:59;99518.28;;;27.87;55.78
73817;BME280;62146;53.232;-1.304;2022-09-09T13:23:36;99521.53;;;28.81;54.52
73817;BME280;62146;53.232;-1.304;2022-09-09T13:26:24;99522.81;;;28.09;54.52
73817;BME280;62146;53.232;-1.304;2022-09-09T13:29:06;99521.44;;;30.22;51.22
73817;BME280;62146;53.232;-1.304;2022-09-09T13:31:36;99521.47;;;30.29;48.95
73817;BME280;62146;53.232;-1.304;2022-09-09T13:34:33;99535.06;;;27.60;54.87
73817;BME280;62146;53.232;-1.304;2022-09-09T13:37:05;99530.97;;;26.67;56.51
73817;BME280;62146;53.232;-1.304;2022-09-09T13:39:36;99538.28;;;26.19;58.91
73817;BME280;62146;53.232;-1.304;2022-09-09T13:42:04;99546.41;;;25.79;60.61
73817;BME280;62146;53.232;-1.304;2022-09-09T13:44:35;99538.69;;;25.62;61.59
73817;BME280;62146;53.232;-1.304;2022-09-09T13:47:06;99537.03;;;25.57;61.40
73817;BME280;62146;53.232;-1.304;2022-09-09T13:49:36;99528.03;;;25.54;61.68
73817;BME280;62146;53.232;-1.304;2022-09-09T13:54:32;99534.50;;;25.30;62.53
73817;BME280;62146;53.232;-1.304;2022-09-09T13:56:58;99527.13;;;25.31;61.96
73817;BME280;62146;53.232;-1.304;2022-09-09T13:59:25;99533.47;;;25.20;62.35
73817;BME280;62146;53.232;-1.304;2022-09-09T14:02:12;99538.81;;;25.16;63.10
73817;BME280;62146;53.232;-1.304;2022-09-09T14:04:39;99555.88;;;24.98;63.86
73817;BME280;62146;53.232;-1.304;2022-09-09T14:07:12;99556.63;;;25.14;62.90
73817;BME280;62146;53.232;-1.304;2022-09-09T14:09:40;99566.09;;;25.04;64.15
73817;BME280;62146;53.232;-1.304;2022-09-09T14:12:11;99565.84;;;24.94;64.91
73817;BME280;62146;53.232;-1.304;2022-09-09T14:14:38;99568.03;;;25.38;63.81
73817;BME280;62146;53.232;-1.304;2022-09-09T14:17:05;99576.00;;;25.46;62.56
73817;BME280;62146;53.232;-1.304;2022-09-09T14:19:33;99571.00;;;25.48;62.54
73817;BME280;62146;53.232;-1.304;2022-09-09T14:22:00;99574.06;;;25.65;62.15
73817;BME280;62146;53.232;-1.304;2022-09-09T14:24:27;99567.50;;;25.85;61.42
73817;BME280;62146;53.232;-1.304;2022-09-09T14:26:54;99566.31;;;26.23;60.07
73817;BME280;62146;53.232;-1.304;2022-09-09T14:29:21;99574.78;;;27.07;58.18
73817;BME280;62146;53.232;-1.304;2022-09-09T14:31:48;99580.16;;;28.16;54.81
73817;BME280;62146;53.232;-1.304;2022-09-09T14:34:14;99597.84;;;29.63;51.22
73817;BME280;62146;53.232;-1.304;2022-09-09T14:36:41;99622.66;;;32.21;46.38
73817;BME280;62146;53.232;-1.304;2022-09-09T14:39:08;99609.69;;;35.35;40.81
73817;BME280;62146;53.232;-1.304;2022-09-09T14:41:34;99607.44;;;36.80;38.74
73817;BME280;62146;53.232;-1.304;2022-09-09T14:44:01;99590.13;;;37.39;37.44
73817;BME280;62146;53.232;-1.304;2022-09-09T14:46:27;99564.03;;;36.93;37.52
73817;BME280;62146;53.232;-1.304;2022-09-09T14:48:54;99581.41;;;34.56;41.80
73817;BME280;62146;53.232;-1.304;2022-09-09T14:51:22;99560.09;;;34.05;41.82
73817;BME280;62146;53.232;-1.304;2022-09-09T14:53:54;99548.03;;;32.87;43.48
73817;BME280;62146;53.232;-1.304;2022-09-09T14:56:23;99548.00;;;31.45;45.73
73817;BME280;62146;53.232;-1.304;2022-09-09T14:58:50;99544.97;;;30.47;47.60
73817;BME280;62146;53.232;-1.304;2022-09-09T15:01:19;99540.06;;;29.75;49.04
73817;BME280;62146;53.232;-1.304;2022-09-09T15:03:54;99535.84;;;29.14;50.22
73817;BME280;62146;53.232;-1.304;2022-09-09T15:06:22;99535.34;;;28.56;51.44